Balmat, New York
Current Conditions -  °F | °C
As of 4:58 PM on Wednesday 28 Jan 2015 (Local Time) from KGTB Reporting Station
Clear Clear  
Wind Chill:   Ceiling: Unl
Heat Index: 14°   Visibility: 10mi
Dew Point: -8°   Wind: 7mph
Humidity: 37%   Direction: 240°WSW
Pressure: 30.26"   Gusts: NA
Location:  44.2483°N, 75.3953°W
Report Text: KGTB 282158Z AUTO 24006KT 10SM CLR M10/M22 A3026 RMK AO2 SLP264 T11021224
Loading
Personal Weather Stations






























Interactive Weather Map New forecast layout! Learn more

10-Day Weather Forecast

Advertisements
Track Severe Weather on mobile